Tiempo atmosférico en la estación meteorológica de Villadepera, Zamora (790 m.)



Fecha
DESCASC
Temp. máxima en grados centígrados (hora)
DESCASC
Temp. mínima en grados centígrados (hora)
DESCASC
Temp. media en grados centígrados
DESCASC
Racha de viento máxima en m/sg (hora)
DESCASC
Velocidad máxima media en intervalos de 10 minutos(hora)
DESCASC
Precipitaciones diarias en mm
DESCASC
Precipitaciones de 00:00 a 06:00 en mm
DESCASC
Precipitaciones de 06:00 a 12:00 en mm
DESCASC
Precipitaciones de 12:00 a 18:00 en mm
DESCASC
Precipitaciones de 18:00 a 24:00 en mm
DESCASC
25-04-2019 9.2 (16:30) 2.7 (07:30) 5.9 19.17 (17:10) 14.17 (16:50) 2.4 0.4 0.4 0.6 1
24-04-2019 10.7 (14:10) 0.2 (07:50) 5.4 19.44 (14:20) 14.17 (14:30) 12 0.4 4 4.2 3.4
23-04-2019 9.4 (14:50) 3.3 (22:30) 6.3 15.28 (15:10) 10.28 (15:20) 2.8 0.6 0 2.2 0
22-04-2019 16.9 (17:20) 5.2 (00:00) 11 12.78 (19:00) 10 (19:00) 0.8 0 0 0 0.8
21-04-2019 17.7 (17:20) 7.3 (00:00) 12.5 15 (12:40) 9.44 (00:10) 0 0 0 0 0
20-04-2019 20.8 (18:40) 9.7 (00:00) 15.2 18.06 (14:10) 11.39 (13:20) 0 0 0 0 0
19-04-2019 15.3 (16:10) 7.2 (00:00) 11.3 17.78 (23:30) 11.11 (23:59) 4.8 4.8 0 0 0
18-04-2019 14.4 (17:40) 5.7 (00:00) 10 9.17 (01:20) 6.39 (01:50) 4 3.2 0 0 0.8
17-04-2019 17.2 (15:20) 7.9 (00:00) 12.6 15.83 (19:10) 11.39 (19:10) 2.4 0 0 0 2.4
16-04-2019 18.1 (18:10) 3.1 (00:00) 10.6 7.5 (15:20) 5.56 (01:00) 0 0 0 0 0
15-04-2019 17 (11:20) 6.8 (00:00) 11.9 20 (14:50) 15.56 (14:50) 0.4 0 0.2 0.2 0
14-04-2019 17.9 (18:50) 9.8 (00:00) 13.8 6.94 (16:10) 5.28 (16:30) 0 0 0 0 0
13-04-2019 19.2 (17:20) 6.2 (00:00) 12.7 9.44 (21:00) 6.67 (21:00) 0 0 0 0 0
12-04-2019 19.3 (18:40) 2.2 (07:40) 10.7 7.22 (04:00) 5 (04:00) 0 0 0 0 0
11-04-2019 14.2 (18:10) 2.4 (00:00) 8.3 6.67 (23:59) 3.89 (00:50) 0 0 0 0 0
10-04-2019 13.8 (17:00) 3.3 (00:00) 8.6 11.94 (09:50) 8.89 (16:00) 1.6 0 0 0.8 0.8
09-04-2019 10.8 (18:30) 3.4 (00:00) 7.1 15.28 (17:30) 10.83 (17:10) 1.2 0 1.2 0 0
08-04-2019 12.4 (16:40) 5.4 (00:00) 8.9 16.11 (19:10) 11.11 (19:10) 0.6 0.2 0 0 0.4
07-04-2019 8.6 (15:10) 1.5 (00:00) 5.1 11.94 (23:50) 9.17 (23:50) 0.4 0 0 0 0.4
06-04-2019 8.7 (18:30) 1.9 (00:00) 5.3 18.06 (16:50) 13.33 (16:00) 0.6 0.2 0.2 0 0.2
05-04-2019 9.6 (17:00) 1.6 (00:00) 5.6 15 (18:40) 10.28 (18:50) 1.4 0.2 0 0 1.2
04-04-2019 9 (14:50) -2.6 (-00:0) 3.2 13.89 (15:40) 9.44 (16:30) 0.6 0 0 0 0.6
03-04-2019 11.6 (15:00) 0.4 (08:20) 6 13.06 (15:50) 9.44 (16:50) 0 0 0 0 0
02-04-2019 17.7 (18:20) 5.6 (00:00) 11.7 12.22 (19:50) 8.89 (19:40) 0 0 0 0 0
01-04-2019 17.3 (17:50) 4 (00:00) 10.6 10 (22:20) 7.78 (22:20) 0 0 0 0 0
31-03-2019 18.3 (17:00) 5.4 (00:00) 11.8 9.17 (15:20) 6.67 (11:10) 0 0 0 0 0
30-03-2019 19.1 (17:20) 5.1 (00:00) 12.1 6.11 (01:00) 5 (00:50) 0 0 0 0 0
29-03-2019 19.7 (17:30) 3.5 (00:00) 11.6 8.89 (01:10) 6.39 (01:10) 0 0 0 0 0
28-03-2019 17.2 (17:30) 2.6 (00:00) 9.9 14.17 (10:10) 9.72 (10:20) 0 0 0 0 0
27-03-2019 18.5 (17:20) 2.3 (00:00) 10.4 15.83 (03:20) 10.83 (03:20) 0 0 0 0 0

Gráficas

Temp. máximas Temp. mínimas Temp. medias Precipitaciones Rachas de viento máximas Velocidades máximas media en intervalos de 10 minutos

Datos horarios

Fecha y hora oficial Temperatura (ºC) Velocidad del viento (km/h) Dirección del viento Racha (km/h) Dirección de racha Precipitación (mm) Presión (hPa) Tendencia (hPa) Humedad (%)
2019-04-25 23:00:00 5.5 35 Sudoeste 47 Sudoeste 0 -- -- 93
2019-04-25 22:00:00 5.2 40 Sudoeste 54 Sudoeste 0 -- -- 92
2019-04-25 21:00:00 5.9 38 Sudoeste 60 Sudoeste 0 -- -- 90
2019-04-25 20:00:00 6.9 44 Sudoeste 64 Sudoeste 0 -- -- 83
2019-04-25 19:00:00 6.8 45 Sudoeste 67 Oeste 1 -- -- 91
2019-04-25 18:00:00 8.3 41 Oeste 69 Oeste 0 -- -- 77
2019-04-25 17:00:00 8.8 50 Sudoeste 67 Sudoeste 0 -- -- 71
2019-04-25 16:00:00 7.8 39 Sudoeste 66 Oeste 0 -- -- 84
2019-04-25 15:00:00 7.4 37 Sudoeste 57 Oeste 0.4 -- -- 90
2019-04-25 14:00:00 7.8 34 Sudoeste 57 Oeste 0 -- -- 80
2019-04-25 13:00:00 5.6 28 Oeste 52 Sudoeste 0.2 -- -- 94
2019-04-25 12:00:00 6.5 37 Sudoeste 57 Sudoeste 0 -- -- 82
2019-04-25 11:00:00 5.9 33 Sudoeste 48 Sudoeste 0 -- -- 87
2019-04-25 10:00:00 4.8 28 Sudoeste 42 Sudoeste 0 -- -- 91
2019-04-25 09:00:00 4.3 26 Sudoeste 43 Sudoeste 0 -- -- 94
2019-04-25 08:00:00 3.4 29 Sudoeste 50 Sudoeste 0 -- -- 97
2019-04-25 07:00:00 3.6 33 Sudoeste 61 Sudoeste 0.4 -- -- 96
2019-04-25 06:00:00 3.9 27 Sudoeste 50 Sudoeste 0.4 -- -- 97
2019-04-25 05:00:00 4.2 18 Sudoeste 25 Sudoeste 0 -- -- 99
2019-04-25 04:00:00 3.5 18 Oeste 51 Sudoeste 0 -- -- 97
2019-04-25 03:00:00 4.3 33 Sudoeste 46 Sudoeste 0 -- -- 95
2019-04-25 02:00:00 5 28 Sudoeste 40 Sudoeste 0 -- -- 97
2019-04-25 01:00:00 5.3 23 Sudoeste 51 Sudoeste 0 -- -- 98
2019-04-25 00:00:00 5.4 24 Sudoeste 39 Sudoeste 0 -- -- 99
2019-04-24 23:00:00 5.8 32 Sudoeste 49 Sudoeste 1.2 -- -- 98
2019-04-24 22:00:00 6.1 24 Oeste 36 Oeste 1.2 -- -- 98
2019-04-24 21:00:00 6.4 28 Sudoeste 46 Sudoeste 0.4 -- -- 95
2019-04-24 20:00:00 7.2 31 Sudoeste 46 Oeste 0.6 -- -- 94
2019-04-24 19:00:00 7.6 33 Sudoeste 59 Sudoeste 0 -- -- 90
2019-04-24 18:00:00 8.2 37 Sudoeste 49 Sudoeste 1.8 -- -- 95
2019-04-24 17:00:00 8 39 Sudoeste 59 Sudoeste 0.2 -- -- 93
2019-04-24 16:00:00 8.3 45 Sudoeste 64 Sudoeste 1 -- -- 94
2019-04-24 15:00:00 9 40 Sudoeste 70 Sudoeste 0.4 -- -- 93
2019-04-24 14:00:00 9.7 48 Sudoeste 66 Sudoeste 0.2 -- -- 88
2019-04-24 13:00:00 8.9 34 Sudoeste 55 Sudoeste 0.6 -- -- 96
2019-04-24 12:00:00 7.9 37 Sudoeste 53 Sudoeste 0 -- -- 97
2019-04-24 11:00:00 6.8 36 Sudoeste 54 Sudoeste 0 -- -- 97
2019-04-24 10:00:00 4.6 31 Sudoeste 42 Sur 2 -- -- 100
2019-04-24 09:00:00 0.8 10 Sudeste 16 Sudeste 0.2 -- -- 98
2019-04-24 08:00:00 0.2 7 Sudeste 36 Sur 0.2 -- -- 97
2019-04-24 07:00:00 2 29 Sur 42 Sur 1.6 -- -- 94
2019-04-24 06:00:00 3.1 23 Sur 42 Sudoeste 0.2 -- -- 95
2019-04-24 05:00:00 3.2 32 Sudoeste 43 Sudoeste 0.2 -- -- 93
2019-04-24 04:00:00 3.3 21 Sudoeste 36 Sur 0 -- -- 94
2019-04-24 03:00:00 3.1 18 Sudoeste 32 Sudoeste 0 -- -- 93
2019-04-24 02:00:00 3 18 Sudoeste 31 Sudoeste 0 -- -- 95
2019-04-24 01:00:00 3.1 18 Sudoeste 31 Sudoeste 0 -- -- 94
2019-04-24 00:00:00 3.5 23 Sudoeste 32 Sudoeste 0 -- -- 90
2019-04-23 23:00:00 3.7 21 Sudoeste 28 Sudoeste 0 -- -- 88
2019-04-23 22:00:00 3.6 18 Sudoeste 24 Sudoeste 0 -- -- 89
2019-04-23 21:00:00 4.6 18 Oeste 31 Oeste 0 -- -- 91
2019-04-23 20:00:00 4.6 23 Oeste 55 Oeste 0 -- -- 94
2019-04-23 19:00:00 6 16 Oeste 33 Sudoeste 0 -- -- 86
2019-04-23 18:00:00 6.5 21 Oeste 33 Oeste 0 -- -- 87
2019-04-23 17:00:00 4.5 10 Sudoeste 36 Noroeste 1.2 -- -- 97
2019-04-23 16:00:00 4.9 12 Oeste 55 Oeste 0.8 -- -- 96
2019-04-23 15:00:00 8.9 21 Sudoeste 38 Oeste 0 -- -- 77
2019-04-23 14:00:00 6.7 23 Oeste 38 Oeste 0.2 -- -- 89
2019-04-23 13:00:00 5.5 29 Sudoeste 50 Sudoeste 0 -- -- 86
2019-04-23 12:00:00 6.1 24 Sudoeste 44 Oeste 0 -- -- 86
2019-04-23 11:00:00 6.2 23 Sudoeste 36 Sudoeste 0 -- -- 86
2019-04-23 10:00:00 5.3 25 Sudoeste 35 Sudoeste 0 -- -- 92
2019-04-23 09:00:00 4.1 19 Sudoeste 28 Sudoeste 0 -- -- 96
2019-04-23 08:00:00 4.1 21 Sudoeste 29 Sudoeste 0 -- -- 96
2019-04-23 07:00:00 4.3 15 Sudoeste 27 Sudoeste 0 -- -- 96
2019-04-23 06:00:00 4.9 18 Sudoeste 24 Sudoeste 0 -- -- 97
2019-04-23 05:00:00 5 16 Sudoeste 25 Sudoeste 0.6 -- -- 96
2019-04-23 04:00:00 5.1 19 Oeste 36 Oeste 0 -- -- 96
2019-04-23 03:00:00 5.8 31 Oeste 44 Sudoeste 0 -- -- 95
2019-04-23 02:00:00 8.8 17 Sur 24 Sur 0 -- -- 89
2019-04-23 01:00:00 9 3 Sur 12 Sudoeste 0 -- -- 91
2019-04-23 00:00:00 9.2 8 Sudoeste 24 Sudoeste 0.4 -- -- 90
2019-04-22 23:00:00 10.1 18 Sudoeste 25 Sudoeste 0.4 -- -- 87
2019-04-22 22:00:00 11.5 16 Oeste 26 Oeste 0 -- -- 74
2019-04-22 21:00:00 12.3 20 Oeste 44 Sudoeste 0 -- -- 73
2019-04-22 20:00:00 13.5 18 Sudoeste 44 Oeste 0 -- -- 68
2019-04-22 19:00:00 14 36 Sudoeste 46 Oeste 0 -- -- 60
2019-04-22 18:00:00 16.4 21 Sudoeste 35 Oeste 0 -- -- 55
2019-04-22 17:00:00 16.5 23 Oeste 37 Oeste 0 -- -- 53
2019-04-22 16:00:00 16.6 23 Sudoeste 41 Sudoeste 0 -- -- 51
2019-04-22 15:00:00 16 20 Sudoeste 30 Sudoeste 0 -- -- 55
2019-04-22 14:00:00 15.3 18 Sudoeste 31 Sudoeste 0 -- -- 57
2019-04-22 13:00:00 14.6 13 Sudoeste 22 Sudoeste 0 -- -- 58
2019-04-22 12:00:00 12.8 8 Sur 17 Sur 0 -- -- 66
2019-04-22 11:00:00 10.7 6 Sudeste 12 Sur 0 -- -- 75
2019-04-22 10:00:00 8.5 7 Este 13 Este 0 -- -- 89
2019-04-22 09:00:00 7.1 4 Este 6 Este 0 -- -- 93
2019-04-22 08:00:00 5.3 5 Este 11 Nordeste 0 -- -- 95
2019-04-22 07:00:00 5.5 8 Nordeste 10 Nordeste 0 -- -- 95
2019-04-22 06:00:00 6 9 Norte 14 Norte 0 -- -- 93
2019-04-22 05:00:00 6.2 12 Norte 13 Norte 0 -- -- 92
2019-04-22 04:00:00 6.9 5 Nordeste 9 Nordeste 0 -- -- 88
2019-04-22 03:00:00 7.6 5 Este 15 Nordeste 0 -- -- 85
2019-04-22 02:00:00 8.3 13 Nordeste 20 Nordeste 0 -- -- 84
2019-04-22 01:00:00 9.3 11 Nordeste 15 Nordeste 0 -- -- 79
2019-04-22 00:00:00 10.4 12 Nordeste 16 Nordeste 0 -- -- 74
2019-04-21 23:00:00 11 11 Nordeste 21 Este 0 -- -- 69
2019-04-21 22:00:00 12.1 14 Nordeste 22 Este 0 -- -- 61
2019-04-21 21:00:00 13 14 Nordeste 32 Este 0 -- -- 58
2019-04-21 20:00:00 14.2 24 Este 36 Nordeste 0 -- -- 54
2019-04-21 19:00:00 15.5 19 Nordeste 31 Este 0 -- -- 48
2019-04-21 18:00:00 16.1 25 Este 40 Nordeste 0 -- -- 49
2019-04-21 17:00:00 16.6 24 Nordeste 44 Nordeste 0 -- -- 46
2019-04-21 16:00:00 17.2 27 Nordeste 48 Nordeste 0 -- -- 47
2019-04-21 15:00:00 16.6 31 Nordeste 47 Nordeste 0 -- -- 47
2019-04-21 14:00:00 15.3 31 Nordeste 50 Nordeste 0 -- -- 50
2019-04-21 13:00:00 14.6 32 Nordeste 54 Nordeste 0 -- -- 54
2019-04-21 12:00:00 13.6 20 Nordeste 40 Este 0 -- -- 63
2019-04-21 11:00:00 12.1 23 Nordeste 37 Este 0 -- -- 67
2019-04-21 10:00:00 11 18 Nordeste 27 Nordeste 0 -- -- 71
2019-04-21 09:00:00 8.4 16 Nordeste 26 Nordeste 0 -- -- 78
2019-04-21 08:00:00 7.3 22 Nordeste 35 Nordeste 0 -- -- 82
2019-04-21 07:00:00 7.8 22 Nordeste 37 Nordeste 0 -- -- 80
2019-04-21 06:00:00 8.7 22 Nordeste 33 Nordeste 0 -- -- 76
2019-04-21 05:00:00 9 22 Nordeste 39 Nordeste 0 -- -- 72
2019-04-21 04:00:00 9.9 29 Nordeste 42 Nordeste 0 -- -- 67
2019-04-21 03:00:00 10.3 28 Nordeste 47 Nordeste 0 -- -- 63
2019-04-21 02:00:00 11 30 Nordeste 49 Nordeste 0 -- -- 60
2019-04-21 01:00:00 11.7 33 Nordeste 50 Nordeste 0 -- -- 56
2019-04-21 00:00:00 12.4 33 Nordeste 48 Nordeste 0 -- -- 52
2019-04-20 23:00:00 13.8 29 Nordeste 43 Nordeste 0 -- -- 47
2019-04-20 22:00:00 14.7 23 Nordeste 45 Nordeste 0 -- -- 46
2019-04-20 21:00:00 16.4 28 Nordeste 41 Este 0 -- -- 43
2019-04-20 20:00:00 18.2 28 Nordeste 51 Este 0 -- -- 41
2019-04-20 19:00:00 19.6 30 Nordeste 47 Nordeste 0 -- -- 39
2019-04-20 18:00:00 20.1 32 Nordeste 51 Nordeste 0 -- -- 37
2019-04-20 17:00:00 20 34 Nordeste 57 Nordeste 0 -- -- 37
2019-04-20 16:00:00 19.6 35 Este 57 Este 0 -- -- 40
2019-04-20 15:00:00 18.8 37 Este 65 Este 0 -- -- 46
2019-04-20 14:00:00 17.9 37 Nordeste 60 Este 0 -- -- 52
2019-04-20 13:00:00 17.5 31 Nordeste 55 Este 0 -- -- 52
2019-04-20 12:00:00 16.3 33 Nordeste 54 Nordeste 0 -- -- 56
2019-04-20 11:00:00 15 34 Nordeste 48 Este 0 -- -- 56
2019-04-20 10:00:00 13 30 Nordeste 44 Nordeste 0 -- -- 65
2019-04-20 09:00:00 11.1 22 Nordeste 35 Nordeste 0 -- -- 73
2019-04-20 08:00:00 9.7 24 Nordeste 43 Nordeste 0 -- -- 77
2019-04-20 07:00:00 10.4 27 Nordeste 42 Nordeste 0 -- -- 74
2019-04-20 06:00:00 10.4 26 Nordeste 42 Nordeste 0 -- -- 78
2019-04-20 05:00:00 11.3 34 Nordeste 54 Nordeste 0 -- -- 72
2019-04-20 04:00:00 11.8 35 Nordeste 53 Nordeste 0 -- -- 70
2019-04-20 03:00:00 11.5 27 Nordeste 52 Nordeste 0 -- -- 72
2019-04-20 02:00:00 11.6 35 Nordeste 52 Nordeste 0 -- -- 72
2019-04-20 01:00:00 12.1 37 Nordeste 61 Nordeste 0 -- -- 69
2019-04-20 00:00:00 12.8 40 Nordeste 64 Nordeste 0 -- -- 66
2019-04-19 23:00:00 12.7 37 Nordeste 55 Nordeste 0 -- -- 68
2019-04-19 22:00:00 12.3 34 Nordeste 52 Nordeste 0 -- -- 74
2019-04-19 21:00:00 12.6 31 Nordeste 45 Nordeste 0 -- -- 76
2019-04-19 20:00:00 12.3 26 Nordeste 55 Este 0 -- -- 72
2019-04-19 19:00:00 12.4 36 Nordeste 54 Este 0 -- -- 76
2019-04-19 18:00:00 13.6 32 Nordeste 54 Este 0 -- -- 72
2019-04-19 17:00:00 14.7 30 Este 49 Nordeste 0 -- -- 62
2019-04-19 16:00:00 13.9 30 Nordeste 44 Nordeste 0 -- -- 64
2019-04-19 15:00:00 13.4 27 Nordeste 37 Nordeste 0 -- -- 70
2019-04-19 14:00:00 12.6 22 Nordeste 34 Nordeste 0 -- -- 70
2019-04-19 13:00:00 12 17 Nordeste 35 Este 0 -- -- 78
2019-04-19 12:00:00 11.2 21 Nordeste 35 Nordeste 0 -- -- 82
2019-04-19 11:00:00 10 22 Este 33 Este 0 -- -- 88
2019-04-19 10:00:00 9.2 20 Este 28 Este 0 -- -- 92
2019-04-19 09:00:00 8.4 15 Este 30 Este 0 -- -- 96
2019-04-19 08:00:00 7.7 19 Este 28 Este 0 -- -- 98
2019-04-19 07:00:00 7.3 10 Este 16 Nordeste 0 -- -- 98
2019-04-19 06:00:00 7.4 9 Nordeste 13 Nordeste 0.8 -- -- 97
2019-04-19 05:00:00 7.8 7 Nordeste 23 Nordeste 1 -- -- 98
2019-04-19 04:00:00 8.2 15 Nordeste 24 Este 2.6 -- -- 98
2019-04-19 03:00:00 8.2 10 Norte 15 Norte 0 -- -- 97
2019-04-19 02:00:00 8.3 8 Norte 13 Norte 0 -- -- 96
2019-04-19 01:00:00 8.3 4 Norte 10 Noroeste 0.4 -- -- 96
2019-04-19 00:00:00 8.5 4 Norte 7 Norte 0.4 -- -- 94
2019-04-18 23:00:00 8.8 5 Nordeste 17 Nordeste 0.4 -- -- 93
2019-04-18 22:00:00 9.5 9 Nordeste 23 Nordeste 0 -- -- 85
2019-04-18 21:00:00 10.3 15 Nordeste 28 Este 0 -- -- 80
2019-04-18 20:00:00 11.4 21 Nordeste 30 Nordeste 0 -- -- 74
2019-04-18 19:00:00 12.7 18 Este 30 Este 0 -- -- 70
2019-04-18 18:00:00 14 9 Nordeste 15 Nordeste 0 -- -- 57
2019-04-18 17:00:00 14.1 8 Este 16 Nordeste 0 -- -- 55
2019-04-18 16:00:00 13.6 8 Este 19 Este 0 -- -- 62
2019-04-18 15:00:00 12.5 10 Este 19 Este 0 -- -- 69
2019-04-18 14:00:00 11.8 10 Este 21 Este 0 -- -- 75
2019-04-18 13:00:00 11.2 4 Sur 11 Sur 0 -- -- 76
2019-04-18 12:00:00 10.4 3 Sudeste 10 Sudeste 0 -- -- 81
2019-04-18 11:00:00 9 6 Sudeste 12 Sudeste 0 -- -- 90
2019-04-18 10:00:00 8 8 Este 12 Este 0 -- -- 97
2019-04-18 09:00:00 6.8 4 Este 9 Este 0 -- -- 98
2019-04-18 08:00:00 5.7 7 Este 18 Sudoeste 0 -- -- 97
2019-04-18 07:00:00 5.9 10 Sudoeste 18 Sudoeste 0 -- -- 96
2019-04-18 06:00:00 7 8 Sudoeste 19 Sudoeste 0 -- -- 96
2019-04-18 05:00:00 7.5 6 Sudoeste 18 Sudoeste 0 -- -- 96
2019-04-18 04:00:00 7.8 14 Sudoeste 22 Sudoeste 0.8 -- -- 97
2019-04-18 03:00:00 8 19 Sudoeste 26 Sudoeste 1.6 -- -- 96
2019-04-18 02:00:00 8.1 21 Sudoeste 33 Sudoeste 0.8 -- -- 96
2019-04-18 01:00:00 8.6 15 Sudoeste 28 Sudoeste 0 -- -- 96
2019-04-18 00:00:00 8.8 20 Sur 29 Sur 0 -- -- 94
2019-04-17 23:00:00 8.7 11 Sudoeste 21 Sur 0.2 -- -- 94
2019-04-17 22:00:00 8.9 16 Sur 32 Sudoeste 0.6 -- -- 94
2019-04-17 21:00:00 9.3 22 Sudoeste 41 Sudoeste 1.2 -- -- 95
2019-04-17 20:00:00 10.6 32 Sudoeste 57 Sudoeste 0.4 -- -- 93
2019-04-17 19:00:00 15.7 29 Sur 54 Sur 0 -- -- 54
2019-04-17 18:00:00 16.5 26 Sur 48 Sur 0 -- -- 49
2019-04-17 17:00:00 16.6 28 Sur 49 Sur 0 -- -- 46
2019-04-17 16:00:00 16.8 27 Sur 44 Sudeste 0 -- -- 49
2019-04-17 15:00:00 16.3 18 Sur 32 Sur 0 -- -- 52
2019-04-17 14:00:00 15.7 11 Sur 24 Sur 0 -- -- 60
2019-04-17 13:00:00 15.1 9 Sur 22 Sudoeste 0 -- -- 60
2019-04-17 12:00:00 14.4 8 Sudoeste 15 Oeste 0 -- -- 60
2019-04-17 11:00:00 13.1 2 Sur 8 Este 0 -- -- 66
2019-04-17 10:00:00 10.9 4 Este 9 Sur 0 -- -- 71
2019-04-17 09:00:00 8.5 6 Sur 16 Sudeste 0 -- -- 74
2019-04-17 08:00:00 8.3 12 Este 17 Sudeste 0 -- -- 72
2019-04-17 07:00:00 8.3 8 Este 14 Sudeste 0 -- -- 69
2019-04-17 06:00:00 9.5 9 Este 15 Sudeste 0 -- -- 63
2019-04-17 05:00:00 9.8 13 Este 16 Sudeste 0 -- -- 62
2019-04-17 04:00:00 9.4 13 Este 17 Este 0 -- -- 65
2019-04-17 03:00:00 9.9 7 Sudeste 13 Este 0 -- -- 62
2019-04-17 02:00:00 10.8 9 Este 13 Este 0 -- -- 58
2019-04-17 01:00:00 11.1 10 Este 12 Este 0 -- -- 58
2019-04-17 00:00:00 12.8 6 Sudeste 8 Este 0 -- -- 50
2019-04-16 23:00:00 13.2 5 Sudeste 13 Sur 0 -- -- 51
2019-04-16 22:00:00 12.9 5 Sudoeste 11 Sudoeste 0 -- -- 51
2019-04-16 21:00:00 14.2 8 Sudoeste 10 Sudoeste 0 -- -- 57
2019-04-16 20:00:00 15.9 8 Sur 20 Sur 0 -- -- 51
2019-04-16 19:00:00 17.3 11 Sur 24 Sudoeste 0 -- -- 48
2019-04-16 18:00:00 18 8 Sudoeste 26 Sudoeste 0 -- -- 47
2019-04-16 17:00:00 17.3 9 Sur 23 Sur 0 -- -- 48
2019-04-16 16:00:00 16.9 10 Sudeste 27 Sur 0 -- -- 43
2019-04-16 15:00:00 15.7 13 Sudeste 23 Sudeste 0 -- -- 50
2019-04-16 14:00:00 14.5 12 Sudeste 24 Este 0 -- -- 57
2019-04-16 13:00:00 13.2 11 Sudeste 26 Este 0 -- -- 62
2019-04-16 12:00:00 11.7 12 Este 22 Este 0 -- -- 71
2019-04-16 11:00:00 9.6 12 Este 21 Este 0 -- -- 78
2019-04-16 10:00:00 7.9 7 Nordeste 10 Nordeste 0 -- -- 88
2019-04-16 09:00:00 5.2 6 Este 9 Este 0 -- -- 95
2019-04-16 08:00:00 3.4 4 Nordeste 6 Sudoeste 0 -- -- 97
2019-04-16 07:00:00 3.8 5 Oeste 10 Sudoeste 0 -- -- 96
2019-04-16 06:00:00 3.3 4 Sur 12 Oeste 0 -- -- 93
2019-04-16 05:00:00 4.1 8 Oeste 10 Sudoeste 0 -- -- 94
2019-04-16 04:00:00 4.3 9 Oeste 12 Oeste 0 -- -- 93
2019-04-16 03:00:00 4.4 10 Sudoeste 15 Oeste 0 -- -- 93
2019-04-16 02:00:00 5.1 11 Sudoeste 25 Oeste 0 -- -- 93
2019-04-16 01:00:00 6.3 20 Oeste 23 Oeste 0 -- -- 90
2019-04-16 00:00:00 6.8 12 Oeste 20 Oeste 0 -- -- 87
2019-04-15 23:00:00 8 18 Oeste 26 Oeste 0 -- -- 84
2019-04-15 22:00:00 9.2 20 Oeste 39 Oeste 0 -- -- 79
2019-04-15 21:00:00 10.9 27 Oeste 40 Oeste 0 -- -- 69
2019-04-15 20:00:00 12.6 27 Oeste 41 Oeste 0 -- -- 71
2019-04-15 19:00:00 12.8 22 Oeste 38 Oeste 0 -- -- 73
2019-04-15 18:00:00 12.8 26 Oeste 43 Oeste 0 -- -- 71
2019-04-15 17:00:00 11.6 34 Oeste 53 Sudoeste 0 -- -- 76
2019-04-15 16:00:00 12.8 39 Oeste 63 Oeste 0 -- -- 64
2019-04-15 15:00:00 13.4 49 Oeste 72 Oeste 0 -- -- 65
2019-04-15 14:00:00 16.2 46 Sudoeste 64 Sudoeste 0.2 -- -- 60
2019-04-15 13:00:00 14.8 35 Sudoeste 50 Sudoeste 0 -- -- 76
2019-04-15 12:00:00 14.2 34 Sudoeste 52 Sudoeste 0.2 -- -- 86
2019-04-15 11:00:00 16 28 Sur 42 Sur 0 -- -- 79
2019-04-15 10:00:00 13 13 Sur 20 Sur 0 -- -- 90
2019-04-15 09:00:00 12 11 Sudeste 14 Sudeste 0 -- -- 90
2019-04-15 08:00:00 11.7 14 Sudeste 15 Sudeste 0 -- -- 91
2019-04-15 07:00:00 11.8 8 Sudeste 10 Este 0 -- -- 91
2019-04-15 06:00:00 11.8 9 Sudeste 11 Sudeste 0 -- -- 92
2019-04-15 05:00:00 11.6 5 Sudeste 10 Sur 0 -- -- 90
2019-04-15 04:00:00 12.4 6 Sudoeste 11 Sudoeste 0 -- -- 89
2019-04-15 03:00:00 12.1 7 Sudoeste 11 Sudoeste 0 -- -- 89
2019-04-15 02:00:00 13.2 9 Sudeste 12 Sudeste 0 -- -- 84
2019-04-15 01:00:00 13.5 9 Sudeste 11 Sudeste 0 -- -- 84
2019-04-15 00:00:00 13.7 7 Este 11 Este 0 -- -- 83
2019-04-14 23:00:00 14.2 4 Sur 7 Sudoeste 0 -- -- 79
2019-04-14 22:00:00 14.5 8 Oeste 8 Oeste 0 -- -- 77
2019-04-14 21:00:00 15.8 5 Sudoeste 12 Sudoeste 0 -- -- 75
2019-04-14 20:00:00 16.7 9 Sudoeste 19 Sudoeste 0 -- -- 74
2019-04-14 19:00:00 17.8 9 Oeste 18 Oeste 0 -- -- 69
2019-04-14 18:00:00 16.8 14 Sudoeste 22 Oeste 0 -- -- 74
2019-04-14 17:00:00 17.5 16 Oeste 25 Oeste 0 -- -- 71
2019-04-14 16:00:00 17.2 14 Oeste 22 Oeste 0 -- -- 74
2019-04-14 15:00:00 16 17 Oeste 22 Oeste 0 -- -- 76
2019-04-14 14:00:00 15.7 16 Oeste 23 Oeste 0 -- -- 78
2019-04-14 13:00:00 15.8 16 Oeste 23 Oeste 0 -- -- 78
2019-04-14 12:00:00 14.5 14 Oeste 21 Oeste 0 -- -- 83
2019-04-14 11:00:00 12.9 10 Sudoeste 14 Sudoeste 0 -- -- 90
2019-04-14 10:00:00 11.8 8 Sudoeste 13 Sudoeste 0 -- -- 96
2019-04-14 09:00:00 10.9 8 Sudoeste 12 Sudoeste 0 -- -- 97
2019-04-14 08:00:00 10.1 6 Sudoeste 15 Sudoeste 0 -- -- 97
2019-04-14 07:00:00 10.3 12 Sudoeste 19 Sudoeste 0 -- -- 96
2019-04-14 06:00:00 10.2 14 Sudoeste 18 Sudoeste 0 -- -- 96
2019-04-14 05:00:00 10.6 14 Sudoeste 21 Oeste 0 -- -- 95
2019-04-14 04:00:00 11 13 Sudoeste 21 Oeste 0 -- -- 92
2019-04-14 03:00:00 10.6 13 Sudoeste 19 Oeste 0 -- -- 92
2019-04-14 02:00:00 11 16 Oeste 23 Oeste 0 -- -- 88
2019-04-14 01:00:00 11.4 15 Oeste 22 Oeste 0 -- -- 83
2019-04-14 00:00:00 12.1 15 Oeste 25 Oeste 0 -- -- 79
2019-04-13 23:00:00 12.7 18 Oeste 28 Oeste 0 -- -- 75
2019-04-13 22:00:00 14 14 Oeste 33 Oeste 0 -- -- 65
2019-04-13 21:00:00 15.1 24 Oeste 34 Oeste 0 -- -- 57
2019-04-13 20:00:00 16 16 Oeste 30 Oeste 0 -- -- 54
2019-04-13 19:00:00 17.9 17 Oeste 27 Oeste 0 -- -- 48
2019-04-13 18:00:00 18.1 12 Sudoeste 29 Oeste 0 -- -- 49
2019-04-13 17:00:00 19.1 13 Sudoeste 30 Sudoeste 0 -- -- 45
2019-04-13 16:00:00 18.2 16 Sudoeste 28 Sudoeste 0 -- -- 45
2019-04-13 15:00:00 18.1 13 Sudoeste 30 Sur 0 -- -- 48
2019-04-13 14:00:00 17 13 Sudoeste 22 Sur 0 -- -- 50
2019-04-13 13:00:00 15.9 5 Sur 13 Sur 0 -- -- 52
2019-04-13 12:00:00 13.9 6 Sudeste 13 Este 0 -- -- 62
2019-04-13 11:00:00 11.6 9 Este 14 Sudeste 0 -- -- 67
2019-04-13 10:00:00 10.5 7 Este 13 Este 0 -- -- 67
2019-04-13 09:00:00 7.7 3 Sudeste 10 Este 0 -- -- 76
2019-04-13 08:00:00 6.4 6 Este 8 Este 0 -- -- 74
2019-04-13 07:00:00 7.1 0 Calma 11 Sudoeste 0 -- -- 73
2019-04-13 06:00:00 7.5 3 Oeste 10 Oeste 0 -- -- 68
2019-04-13 05:00:00 7 5 Sudeste 7 Sudeste 0 -- -- 70
2019-04-13 04:00:00 8 3 Sur 8 Oeste 0 -- -- 62
2019-04-13 03:00:00 8.6 5 Oeste 8 Oeste 0 -- -- 59
2019-04-13 02:00:00 9.4 3 Sur 6 Sudoeste 0 -- -- 55
2019-04-13 01:00:00 10.2 3 Sudoeste 8 Sudoeste 0 -- -- 52
2019-04-13 00:00:00 10.2 4 Sudoeste 8 Sur 0 -- -- 54
2019-04-12 23:00:00 10.6 6 Sudoeste 10 Sudoeste 0 -- -- 55
2019-04-12 22:00:00 10.9 8 Sudoeste 13 Sudoeste 0 -- -- 55
2019-04-12 21:00:00 13 7 Sur 13 Sur 0 -- -- 48
2019-04-12 20:00:00 15.6 6 Sur 14 Sur 0 -- -- 43
2019-04-12 19:00:00 16.2 7 Sur 15 Sur 0 -- -- 41
2019-04-12 18:00:00 15.9 6 Nordeste 11 Sudoeste 0 -- -- 41
2019-04-12 17:00:00 15.6 8 Sur 18 Oeste 0 -- -- 50
2019-04-12 16:00:00 14.3 5 Nordeste 13 Nordeste 0 -- -- 51
2019-04-12 15:00:00 14 6 Sudoeste 14 Sur 0 -- -- 52
2019-04-12 14:00:00 12.9 8 Sur 15 Este 0 -- -- 59
2019-04-12 13:00:00 11.1 6 Este 20 Este 0 -- -- 64
2019-04-12 12:00:00 9.8 12 Este 23 Este 0 -- -- 68
2019-04-12 11:00:00 8.3 14 Este 23 Este 0 -- -- 76
2019-04-12 10:00:00 6.5 14 Este 21 Este 0 -- -- 84
2019-04-12 09:00:00 4.5 10 Nordeste 14 Nordeste 0 -- -- 90
2019-04-12 08:00:00 2.2 8 Nordeste 12 Nordeste 0 -- -- 95
2019-04-12 07:00:00 2.4 8 Nordeste 14 Nordeste 0 -- -- 93
2019-04-12 06:00:00 3 8 Nordeste 17 Este 0 -- -- 91
2019-04-12 05:00:00 3.5 13 Este 25 Este 0 -- -- 89
2019-04-12 04:00:00 4.7 18 Este 26 Este 0 -- -- 85
2019-04-12 03:00:00 4.8 13 Nordeste 21 Este 0 -- -- 85
2019-04-12 02:00:00 5.8 14 Nordeste 24 Nordeste 0 -- -- 77
2019-04-12 01:00:00 6.5 14 Nordeste 22 Nordeste 0 -- -- 71
2019-04-12 00:00:00 7.8 8 Nordeste 24 Nordeste 0 -- -- 67
2019-04-11 23:00:00 9 0 Calma 6 Sudoeste 0 -- -- 59
2019-04-11 22:00:00 10.2 5 Sudoeste 6 Sudoeste 0 -- -- 56
2019-04-11 21:00:00 11.4 5 Oeste 6 Sur 0 -- -- 54
2019-04-11 20:00:00 13 3 Este 11 Este 0 -- -- 52
2019-04-11 19:00:00 12.5 3 Nordeste 18 Sudoeste 0 -- -- 51
2019-04-11 18:00:00 13.9 6 Sudoeste 13 Sudeste 0 -- -- 46
2019-04-11 17:00:00 12.7 5 Sudoeste 18 Nordeste 0 -- -- 53
2019-04-11 16:00:00 12.4 4 Este 15 Nordeste 0 -- -- 51
2019-04-11 15:00:00 11 4 Oeste 14 Noroeste 0 -- -- 58
2019-04-11 14:00:00 11.1 5 Sudoeste 19 Sudoeste 0 -- -- 59
2019-04-11 13:00:00 10.8 6 Sudoeste 12 Oeste 0 -- -- 62
2019-04-11 12:00:00 8.9 3 Este 11 Sudeste 0 -- -- 68
2019-04-11 11:00:00 8.4 5 Este 14 Este 0 -- -- 72
2019-04-11 10:00:00 6.6 5 Sudeste 12 Sudeste 0 -- -- 81
2019-04-11 09:00:00 4.4 4 Este 6 Este 0 -- -- 86
2019-04-11 08:00:00 2.4 5 Nordeste 8 Nordeste 0 -- -- 90
2019-04-11 07:00:00 3.3 5 Este 8 Este 0 -- -- 85
2019-04-11 06:00:00 3.6 5 Este 11 Nordeste 0 -- -- 84
2019-04-11 05:00:00 3.7 7 Nordeste 14 Nordeste 0 -- -- 84
2019-04-11 04:00:00 3.6 5 Nordeste 16 Nordeste 0 -- -- 84
2019-04-11 03:00:00 3.8 10 Nordeste 15 Nordeste 0 -- -- 85
2019-04-11 02:00:00 4.3 11 Nordeste 19 Nordeste 0 -- -- 82
2019-04-11 01:00:00 5 13 Nordeste 18 Nordeste 0 -- -- 81
2019-04-11 00:00:00 5.8 13 Nordeste 23 Nordeste 0 -- -- 80
2019-04-10 23:00:00 6.6 13 Nordeste 18 Nordeste 0 -- -- 82
2019-04-10 22:00:00 8.3 9 Norte 15 Nordeste 0 -- -- 86
2019-04-10 21:00:00 8.4 2 Oeste 22 Nordeste 0.8 -- -- 84
2019-04-10 20:00:00 9.4 7 Sudoeste 16 Sudoeste 0 -- -- 83
2019-04-10 19:00:00 9 10 Sudoeste 16 Sudoeste 0 -- -- 85
2019-04-10 18:00:00 8.9 8 Sur 28 Nordeste 0.6 -- -- 78
2019-04-10 17:00:00 13.8 23 Noroeste 40 Noroeste 0 -- -- 59
2019-04-10 16:00:00 11 32 Oeste 41 Oeste 0.2 -- -- 73
2019-04-10 15:00:00 11.5 30 Oeste 40 Sudoeste 0 -- -- 71
2019-04-10 14:00:00 10.4 23 Oeste 41 Oeste 0 -- -- 76
2019-04-10 13:00:00 10.3 28 Oeste 42 Oeste 0 -- -- 71
2019-04-10 12:00:00 9.6 30 Oeste 41 Oeste 0 -- -- 71
2019-04-10 11:00:00 8.2 28 Oeste 43 Oeste 0 -- -- 74
2019-04-10 10:00:00 6.3 28 Oeste 43 Oeste 0 -- -- 86
2019-04-10 09:00:00 4.3 21 Oeste 35 Oeste 0 -- -- 95
2019-04-10 08:00:00 3.7 25 Oeste 38 Sudoeste 0 -- -- 95
2019-04-10 07:00:00 3.5 24 Sudoeste 32 Sudoeste 0 -- -- 95
2019-04-10 06:00:00 3.9 23 Sudoeste 32 Oeste 0 -- -- 93
2019-04-10 05:00:00 5.3 18 Oeste 29 Oeste 0 -- -- 91
2019-04-10 04:00:00 5.2 18 Oeste 25 Sudoeste 0 -- -- 93
2019-04-10 03:00:00 5.1 20 Sudoeste 26 Sudoeste 0 -- -- 93
2019-04-10 02:00:00 5 22 Sudoeste 32 Oeste 0 -- -- 93
2019-04-10 01:00:00 5.1 21 Sudoeste 32 Oeste 0 -- -- 92
2019-04-10 00:00:00 5.5 25 Oeste 36 Oeste 0 -- -- 92
2019-04-09 23:00:00 5.8 26 Oeste 36 Oeste 0 -- -- 92
2019-04-09 22:00:00 6.1 28 Oeste 42 Oeste 0 -- -- 88
2019-04-09 21:00:00 6.6 28 Oeste 42 Oeste 0 -- -- 86
2019-04-09 20:00:00 7.4 31 Oeste 54 Oeste 0 -- -- 86
2019-04-09 19:00:00 9.5 35 Oeste 52 Oeste 0 -- -- 70
2019-04-09 18:00:00 9.6 28 Oeste 55 Oeste 0 -- -- 65
2019-04-09 17:00:00 9.5 30 Oeste 52 Oeste 0 -- -- 73
2019-04-09 16:00:00 10 39 Oeste 51 Sudoeste 0 -- -- 65
2019-04-09 15:00:00 9.2 35 Oeste 46 Sudoeste 0 -- -- 76
2019-04-09 14:00:00 8.9 35 Oeste 47 Oeste 0 -- -- 76
2019-04-09 13:00:00 6 27 Oeste 42 Sudoeste 0 -- -- 91
2019-04-09 12:00:00 4.5 34 Oeste 44 Oeste 0 -- -- 97
2019-04-09 11:00:00 3.8 22 Oeste 54 Oeste 1 -- -- 98
2019-04-09 10:00:00 5 30 Sudoeste 46 Sudoeste 0.2 -- -- 96
2019-04-09 09:00:00 5.2 23 Sudoeste 39 Sudoeste 0 -- -- 96
2019-04-09 08:00:00 4.9 31 Sudoeste 40 Sudoeste 0 -- -- 96
2019-04-09 07:00:00 4.9 26 Sudoeste 35 Sudoeste 0 -- -- 97
2019-04-09 06:00:00 4.8 24 Sudoeste 37 Sudoeste 0 -- -- 96
2019-04-09 05:00:00 5.2 22 Sudoeste 34 Sur 0 -- -- 95
2019-04-09 04:00:00 5.2 26 Sudoeste 35 Sudoeste 0 -- -- 95
2019-04-09 03:00:00 4.6 20 Sudoeste 28 Sudoeste 0 -- -- 95
2019-04-09 02:00:00 4.5 21 Sudoeste 32 Sudoeste 0 -- -- 93
2019-04-09 01:00:00 5.1 19 Sudoeste 28 Sudoeste 0 -- -- 91
2019-04-09 00:00:00 5.7 27 Sudoeste 36 Sudoeste 0 -- -- 88
2019-04-08 23:00:00 5.6 14 Sudoeste 26 Sudoeste 0 -- -- 89
2019-04-08 22:00:00 6.2 17 Sudoeste 24 Sudoeste 0 -- -- 89
2019-04-08 21:00:00 6 13 Sudoeste 17 Sudoeste 0 -- -- 93
2019-04-08 20:00:00 6.4 10 Sudoeste 58 Sudoeste 0.4 -- -- 92
2019-04-08 19:00:00 8.8 26 Sudoeste 39 Sudoeste 0 -- -- 72
2019-04-08 18:00:00 9.2 27 Sudoeste 46 Sudoeste 0 -- -- 75
2019-04-08 17:00:00 11.3 20 Oeste 40 Sudoeste 0 -- -- 54
2019-04-08 16:00:00 11.3 27 Sudoeste 45 Sudoeste 0 -- -- 60
2019-04-08 15:00:00 10.2 30 Oeste 40 Oeste 0 -- -- 67
2019-04-08 14:00:00 8.1 23 Oeste 45 Oeste 0 -- -- 88
2019-04-08 13:00:00 10.3 24 Oeste 36 Sudoeste 0 -- -- 72
2019-04-08 12:00:00 9.1 28 Oeste 37 Oeste 0 -- -- 73
2019-04-08 11:00:00 7.9 24 Oeste 34 Oeste 0 -- -- 84
2019-04-08 10:00:00 6.7 22 Oeste 29 Sudoeste 0 -- -- 94
2019-04-08 09:00:00 6.3 19 Sudoeste 26 Sudoeste 0 -- -- 97
2019-04-08 08:00:00 6 18 Oeste 34 Sudoeste 0 -- -- 95
2019-04-08 07:00:00 6.6 23 Sudoeste 46 Oeste 0 -- -- 97
2019-04-08 06:00:00 7.1 26 Oeste 37 Oeste 0 -- -- 97
2019-04-08 05:00:00 7.7 29 Sudoeste 46 Sudoeste 0 -- -- 98
2019-04-08 04:00:00 7.8 32 Sudoeste 46 Sudoeste 0 -- -- 97
2019-04-08 03:00:00 7.6 23 Sudoeste 41 Sudoeste 0.2 -- -- 96
2019-04-08 02:00:00 8 30 Sudoeste 44 Sudoeste 0 -- -- 95
2019-04-08 01:00:00 8.2 31 Sudoeste 42 Sudoeste 0 -- -- 96
2019-04-08 00:00:00 8.2 30 Sudoeste 43 Sudoeste 0 -- -- 97
2019-04-07 23:00:00 8.3 26 Sudoeste 41 Sudoeste 0 -- -- 98
2019-04-07 22:00:00 7.9 21 Sudoeste 31 Sudoeste 0.2 -- -- 98
2019-04-07 21:00:00 7.3 16 Sur 22 Sur 0 -- -- 97
2019-04-07 20:00:00 6.8 8 Sur 15 Sur 0.2 -- -- 96
2019-04-07 19:00:00 6.7 11 Sur 23 Sur 0 -- -- 93
2019-04-07 18:00:00 6.5 12 Sudoeste 17 Sudoeste 0 -- -- 91
2019-04-07 17:00:00 6.4 9 Sudoeste 31 Sudoeste 0 -- -- 88
2019-04-07 16:00:00 6 26 Sudoeste 42 Sudoeste 0 -- -- 87
2019-04-07 15:00:00 8.4 25 Sudoeste 32 Sudoeste 0 -- -- 75
2019-04-07 14:00:00 7.8 20 Sudoeste 29 Sudoeste 0 -- -- 72
2019-04-07 13:00:00 6.7 17 Sudoeste 23 Sudoeste 0 -- -- 80
2019-04-07 12:00:00 5.6 11 Sudoeste 24 Sudoeste 0 -- -- 84
2019-04-07 11:00:00 4.9 15 Sudoeste 24 Sudoeste 0 -- -- 88
2019-04-07 10:00:00 4.7 15 Oeste 24 Sudoeste 0 -- -- 93
2019-04-07 09:00:00 3 15 Sudoeste 19 Oeste 0 -- -- 98
2019-04-07 08:00:00 2 8 Oeste 25 Oeste 0 -- -- 98
2019-04-07 07:00:00 1.6 20 Oeste 25 Oeste 0 -- -- 98
2019-04-07 06:00:00 1.8 14 Oeste 25 Sudoeste 0 -- -- 97
2019-04-07 05:00:00 2.9 18 Oeste 29 Sudoeste 0 -- -- 97
2019-04-07 04:00:00 2.7 20 Oeste 26 Oeste 0 -- -- 98
2019-04-07 03:00:00 2.6 20 Oeste 32 Sudoeste 0 -- -- 98
2019-04-07 02:00:00 2.6 26 Oeste 33 Oeste 0 -- -- 97
2019-04-07 01:00:00 2.4 24 Oeste 32 Oeste 0 -- -- 97
2019-04-07 00:00:00 2.5 24 Oeste 41 Oeste 0.2 -- -- 96
2019-04-06 23:00:00 3.8 23 Oeste 34 Oeste 0 -- -- 88
2019-04-06 22:00:00 4.2 21 Oeste 40 Oeste 0 -- -- 84
2019-04-06 21:00:00 4.7 28 Oeste 55 Oeste 0 -- -- 78
2019-04-06 20:00:00 6.4 38 Oeste 60 Oeste 0 -- -- 68
2019-04-06 19:00:00 7.5 45 Oeste 58 Oeste 0 -- -- 66
2019-04-06 18:00:00 7.6 36 Oeste 57 Sudoeste 0 -- -- 72
2019-04-06 17:00:00 7.5 45 Oeste 65 Oeste 0 -- -- 67
2019-04-06 16:00:00 5 48 Oeste 64 Oeste 0 -- -- 89
2019-04-06 15:00:00 4.3 45 Oeste 61 Sudoeste 0 -- -- 95
2019-04-06 14:00:00 3.8 46 Sudoeste 61 Sudoeste 0 -- -- 96
2019-04-06 13:00:00 4 44 Sudoeste 60 Sudoeste 0 -- -- 95
2019-04-06 12:00:00 2.7 42 Sudoeste 60 Sudoeste 0 -- -- 95
2019-04-06 11:00:00 2.5 41 Sudoeste 56 Sudoeste 0 -- -- 96
2019-04-06 10:00:00 2.5 33 Sudoeste 56 Sudoeste 0 -- -- 97
2019-04-06 09:00:00 2.7 35 Sudoeste 44 Sudoeste 0 -- -- 95
2019-04-06 08:00:00 2.2 37 Sudoeste 47 Sudoeste 0 -- -- 96
2019-04-06 07:00:00 2.4 33 Sudoeste 49 Sudoeste 0.2 -- -- 97
2019-04-06 06:00:00 2.8 35 Sudoeste 48 Sudoeste 0.2 -- -- 97
2019-04-06 05:00:00 2.5 24 Sudoeste 34 Sudoeste 0 -- -- 97
2019-04-06 04:00:00 2.3 20 Sudoeste 31 Sudoeste 0 -- -- 97
2019-04-06 03:00:00 2.4 17 Sudoeste 35 Sudoeste 0 -- -- 97
2019-04-06 02:00:00 2.5 23 Sudoeste 34 Sudoeste 0 -- -- 98
2019-04-06 01:00:00 2.2 20 Sudoeste 29 Sudoeste 0 -- -- 97
2019-04-06 00:00:00 2.7 23 Sudoeste 32 Sudoeste 0 -- -- 98
2019-04-05 23:00:00 2.7 18 Sudoeste 24 Sudoeste 0 -- -- 98
2019-04-05 22:00:00 2.3 11 Sudoeste 18 Sudoeste 0 -- -- 97
2019-04-05 21:00:00 2.2 15 Oeste 34 Oeste 1.2 -- -- 95
2019-04-05 20:00:00 4.8 22 Sudoeste 36 Sudoeste 0 -- -- 80
2019-04-05 19:00:00 5.2 32 Sudoeste 54 Sudoeste 0 -- -- 78
2019-04-05 18:00:00 8.5 24 Oeste 41 Oeste 0 -- -- 62
2019-04-05 17:00:00 9.6 26 Sudoeste 42 Oeste 0 -- -- 54
2019-04-05 16:00:00 7.5 23 Oeste 53 Sudoeste 0 -- -- 67
2019-04-05 15:00:00 7.2 25 Oeste 40 Oeste 0 -- -- 63
2019-04-05 14:00:00 6.6 27 Oeste 38 Sudoeste 0 -- -- 66
2019-04-05 13:00:00 5.5 21 Oeste 36 Oeste 0 -- -- 74
2019-04-05 12:00:00 4.4 27 Sudoeste 38 Sudoeste 0 -- -- 82
2019-04-05 11:00:00 3.4 25 Oeste 32 Sudoeste 0 -- -- 86
2019-04-05 10:00:00 3 25 Sudoeste 33 Sudoeste 0 -- -- 92
2019-04-05 09:00:00 1.8 17 Sudoeste 28 Sudoeste 0 -- -- 96
2019-04-05 08:00:00 2 22 Sudoeste 34 Oeste 0 -- -- 96
2019-04-05 07:00:00 2.1 18 Sudoeste 33 Oeste 0 -- -- 97
2019-04-05 06:00:00 3.3 25 Oeste 40 Sudoeste 0 -- -- 96
2019-04-05 05:00:00 3.8 29 Sudoeste 45 Sudoeste 0 -- -- 96
2019-04-05 04:00:00 4.1 27 Sudoeste 39 Sudoeste 0 -- -- 96
2019-04-05 03:00:00 3.9 26 Sudoeste 41 Sudoeste 0 -- -- 95
2019-04-05 02:00:00 3.7 26 Sudoeste 39 Sur 0 -- -- 96
2019-04-05 01:00:00 3.7 26 Sur 36 Sudoeste 0.2 -- -- 94
2019-04-05 00:00:00 3.8 26 Sur 33 Sudoeste 0 -- -- 93
2019-04-04 23:00:00 3.5 14 Sudoeste 27 Sudoeste 0 -- -- 95
2019-04-04 22:00:00 3.4 15 Sudoeste 30 Sudoeste 0 -- -- 94
2019-04-04 21:00:00 3.9 17 Sudoeste 30 Sudoeste 0.4 -- -- 93
2019-04-04 20:00:00 4.4 14 Sudoeste 28 Oeste 0.2 -- -- 91
2019-04-04 19:00:00 5.2 19 Oeste 33 Oeste 0 -- -- 84
2019-04-04 18:00:00 6.3 26 Oeste 44 Oeste 0 -- -- 72
2019-04-04 17:00:00 8 33 Oeste 46 Sudoeste 0 -- -- 55
2019-04-04 16:00:00 8.7 31 Oeste 50 Sudoeste 0 -- -- 52
2019-04-04 15:00:00 8.7 25 Oeste 41 Oeste 0 -- -- 53
2019-04-04 14:00:00 8 26 Sudoeste 37 Sudoeste 0 -- -- 55
2019-04-04 13:00:00 6.7 17 Sudoeste 33 Oeste 0 -- -- 62
2019-04-04 12:00:00 6.5 21 Oeste 31 Oeste 0 -- -- 59
2019-04-04 11:00:00 4.2 17 Oeste 29 Oeste 0 -- -- 74
2019-04-04 10:00:00 1.7 15 Oeste 20 Oeste 0 -- -- 84
2019-04-04 09:00:00 -1.5 9 Oeste 13 Oeste 0 -- -- 90
2019-04-04 08:00:00 -2.5 12 Oeste 17 Oeste 0 -- -- 88
2019-04-04 07:00:00 -2.4 10 Oeste 17 Oeste 0 -- -- 88
2019-04-04 06:00:00 -1.7 15 Oeste 19 Oeste 0 -- -- 87
2019-04-04 05:00:00 -1.5 13 Oeste 18 Noroeste 0 -- -- 85
2019-04-04 04:00:00 -1.2 13 Oeste 16 Oeste 0 -- -- 83
2019-04-04 03:00:00 -0.6 12 Oeste 21 Noroeste 0 -- -- 79
2019-04-04 02:00:00 0.1 13 Noroeste 20 Oeste 0 -- -- 77
2019-04-04 01:00:00 1 12 Noroeste 21 Noroeste 0 -- -- 71
2019-04-04 00:00:00 1.7 13 Noroeste 19 Noroeste 0 -- -- 69
2019-04-03 23:00:00 2.6 13 Oeste 23 Noroeste 0 -- -- 62
2019-04-03 22:00:00 4.2 14 Noroeste 24 Noroeste 0 -- -- 57
2019-04-03 21:00:00 5.7 16 Noroeste 28 Norte 0 -- -- 49
2019-04-03 20:00:00 8.3 17 Norte 36 Noroeste 0 -- -- 47
2019-04-03 19:00:00 9.8 27 Noroeste 43 Oeste 0 -- -- 46
2019-04-03 18:00:00 10.8 28 Oeste 44 Noroeste 0 -- -- 40
2019-04-03 17:00:00 9.7 25 Noroeste 46 Oeste 0 -- -- 45
2019-04-03 16:00:00 11.5 30 Oeste 47 Oeste 0 -- -- 43
2019-04-03 15:00:00 11.6 18 Oeste 36 Oeste 0 -- -- 43
2019-04-03 14:00:00 10.8 18 Oeste 28 Oeste 0 -- -- 45
2019-04-03 13:00:00 9.5 12 Noroeste 30 Oeste 0 -- -- 50
2019-04-03 12:00:00 7.5 12 Oeste 21 Oeste 0 -- -- 62
2019-04-03 11:00:00 6.4 6 Noroeste 14 Oeste 0 -- -- 72
2019-04-03 10:00:00 3.5 11 Oeste 16 Oeste 0 -- -- 82
2019-04-03 09:00:00 1.7 9 Oeste 15 Oeste 0 -- -- 90
2019-04-03 08:00:00 0.8 10 Oeste 23 Oeste 0 -- -- 92
2019-04-03 07:00:00 1.5 18 Oeste 24 Oeste 0 -- -- 91
2019-04-03 06:00:00 2.5 17 Oeste 21 Oeste 0 -- -- 89
2019-04-03 05:00:00 3.3 15 Oeste 18 Oeste 0 -- -- 88
2019-04-03 04:00:00 4.2 10 Oeste 15 Oeste 0 -- -- 82
2019-04-03 03:00:00 5.4 14 Oeste 23 Oeste 0 -- -- 78
2019-04-03 02:00:00 6.6 15 Oeste 19 Oeste 0 -- -- 76
2019-04-03 01:00:00 6.5 13 Oeste 17 Oeste 0 -- -- 70
2019-04-03 00:00:00 7.5 13 Oeste 22 Oeste 0 -- -- 62
2019-04-02 23:00:00 9.2 18 Oeste 29 Oeste 0 -- -- 53
2019-04-02 22:00:00 10.7 23 Oeste 31 Oeste 0 -- -- 45
2019-04-02 21:00:00 11.7 18 Oeste 37 Oeste 0 -- -- 42
2019-04-02 20:00:00 14.5 31 Oeste 44 Oeste 0 -- -- 39
2019-04-02 19:00:00 16.2 29 Oeste 44 Oeste 0 -- -- 40
2019-04-02 18:00:00 16.9 24 Sudoeste 40 Oeste 0 -- -- 39
2019-04-02 17:00:00 16.6 19 Oeste 34 Oeste 0 -- -- 44
2019-04-02 16:00:00 16.1 19 Oeste 31 Oeste 0 -- -- 41
2019-04-02 15:00:00 15.9 14 Oeste 26 Sudoeste 0 -- -- 49
2019-04-02 14:00:00 15.1 9 Sur 21 Sur 0 -- -- 53
2019-04-02 13:00:00 13.8 10 Sudoeste 18 Oeste 0 -- -- 64
2019-04-02 12:00:00 11.9 7 Sudoeste 15 Oeste 0 -- -- 68
2019-04-02 11:00:00 10.7 3 Norte 10 Norte 0 -- -- 71
2019-04-02 10:00:00 6.7 6 Noroeste 8 Noroeste 0 -- -- 92
2019-04-02 09:00:00 6.5 0 Calma 11 Noroeste 0 -- -- 86
2019-04-02 08:00:00 6 4 Noroeste 12 Oeste 0 -- -- 89
2019-04-02 07:00:00 6.2 2 Noroeste 9 Oeste 0 -- -- 86
2019-04-02 06:00:00 5.9 7 Oeste 16 Oeste 0 -- -- 89
2019-04-02 05:00:00 6.3 14 Oeste 17 Oeste 0 -- -- 90
2019-04-02 04:00:00 7 15 Oeste 20 Oeste 0 -- -- 86
2019-04-02 03:00:00 8.5 16 Oeste 23 Oeste 0 -- -- 81
2019-04-02 02:00:00 8.7 10 Oeste 26 Oeste 0 -- -- 80
2019-04-02 01:00:00 9.4 19 Oeste 24 Oeste 0 -- -- 77
2019-04-02 00:00:00 8.5 20 Oeste 24 Oeste 0 -- -- 77
2019-04-01 23:00:00 9.2 21 Oeste 36 Oeste 0 -- -- 74
2019-04-01 22:00:00 11 19 Oeste 32 Sudoeste 0 -- -- 66
2019-04-01 21:00:00 12 15 Oeste 25 Oeste 0 -- -- 59
2019-04-01 20:00:00 12.2 17 Oeste 30 Noroeste 0 -- -- 61
2019-04-01 19:00:00 12 18 Noroeste 31 Noroeste 0 -- -- 68
2019-04-01 18:00:00 16.7 9 Oeste 18 Sudoeste 0 -- -- 43
2019-04-01 17:00:00 16.9 4 Nordeste 17 Sudoeste 0 -- -- 39
2019-04-01 16:00:00 16.6 6 Sur 18 Sur 0 -- -- 46
2019-04-01 15:00:00 15.4 5 Sudoeste 15 Sudeste 0 -- -- 49
2019-04-01 14:00:00 14.3 4 Oeste 17 Este 0 -- -- 53
2019-04-01 13:00:00 12.9 11 Sudeste 21 Sudeste 0 -- -- 59
2019-04-01 12:00:00 11.1 11 Este 22 Nordeste 0 -- -- 69
2019-04-01 11:00:00 9.1 11 Nordeste 17 Nordeste 0 -- -- 77
2019-04-01 10:00:00 6.7 14 Este 21 Nordeste 0 -- -- 84
2019-04-01 09:00:00 5.1 14 Nordeste 25 Nordeste 0 -- -- 88
2019-04-01 08:00:00 4.2 17 Nordeste 23 Nordeste 0 -- -- 90
2019-04-01 07:00:00 4.2 12 Nordeste 16 Nordeste 0 -- -- 89
2019-04-01 06:00:00 4.9 9 Nordeste 18 Nordeste 0 -- -- 85
2019-04-01 05:00:00 5.7 12 Nordeste 20 Nordeste 0 -- -- 83
2019-04-01 04:00:00 6.5 12 Nordeste 27 Nordeste 0 -- -- 82
2019-04-01 03:00:00 7.7 14 Nordeste 28 Este 0 -- -- 79
2019-04-01 02:00:00 8.3 18 Nordeste 26 Este 0 -- -- 78
2019-04-01 01:00:00 9.4 12 Nordeste 20 Este 0 -- -- 64
2019-04-01 00:00:00 10 12 Este 24 Este 0 -- -- 62
2019-03-31 23:00:00 10.4 6 Este 23 Este 0 -- -- 58
2019-03-31 22:00:00 11.5 11 Nordeste 19 Nordeste 0 -- -- 48
2019-03-31 21:00:00 13.1 15 Nordeste 26 Nordeste 0 -- -- 44
2019-03-31 20:00:00 15.2 14 Nordeste 26 Nordeste 0 -- -- 39
2019-03-31 19:00:00 16.7 20 Nordeste 32 Este 0 -- -- 33
2019-03-31 18:00:00 16.6 20 Nordeste 33 Nordeste 0 -- -- 35
2019-03-31 17:00:00 18.3 12 Nordeste 29 Este 0 -- -- 31
2019-03-31 16:00:00 17.4 15 Nordeste 33 Este 0 -- -- 34
2019-03-31 15:00:00 16.7 19 Nordeste 31 Nordeste 0 -- -- 39
2019-03-31 14:00:00 15.6 20 Este 31 Este 0 -- -- 46
2019-03-31 13:00:00 14.1 21 Este 30 Nordeste 0 -- -- 49
2019-03-31 12:00:00 13 19 Nordeste 32 Nordeste 0 -- -- 46
2019-03-31 11:00:00 10.3 23 Nordeste 32 Nordeste 0 -- -- 52
2019-03-31 10:00:00 8.4 19 Nordeste 29 Nordeste 0 -- -- 58
2019-03-31 09:00:00 6.4 21 Norte 30 Nordeste 0 -- -- 63
2019-03-31 08:00:00 5.7 21 Nordeste 26 Norte 0 -- -- 66
2019-03-31 07:00:00 6.2 18 Nordeste 23 Nordeste 0 -- -- 68
2019-03-31 06:00:00 7 17 Nordeste 23 Nordeste 0 -- -- 67
2019-03-31 05:00:00 7.5 12 Nordeste 17 Nordeste 0 -- -- 65
2019-03-31 03:00:00 8.1 9 Nordeste 24 Este 0 -- -- 63
2019-03-31 01:00:00 10.1 16 Nordeste 26 Nordeste 0 -- -- 56
2019-03-31 00:00:00 10.9 14 Norte 21 Norte 0 -- -- 51
2019-03-30 23:00:00 11 12 Nordeste 15 Nordeste 0 -- -- 49
2019-03-30 22:00:00 11.7 12 Nordeste 15 Nordeste 0 -- -- 46
2019-03-30 21:00:00 12.3 11 Nordeste 13 Nordeste 0 -- -- 45
2019-03-30 20:00:00 13.7 9 Norte 12 Norte 0 -- -- 42
2019-03-30 19:00:00 15.8 4 Este 15 Este 0 -- -- 36
2019-03-30 18:00:00 17.2 12 Nordeste 18 Nordeste 0 -- -- 32
2019-03-30 17:00:00 17 9 Nordeste 17 Este 0 -- -- 33
2019-03-30 16:00:00 15.7 12 Nordeste 18 Este 0 -- -- 38
2019-03-30 15:00:00 16 13 Nordeste 18 Nordeste 0 -- -- 40
2019-03-30 14:00:00 17.4 5 Sur 17 Sudoeste 0 -- -- 39
2019-03-30 13:00:00 16.3 5 Noroeste 11 Oeste 0 -- -- 41
2019-03-30 12:00:00 14.8 5 Sudeste 12 Este 0 -- -- 45
2019-03-30 11:00:00 12.6 9 Este 13 Este 0 -- -- 45
2019-03-30 10:00:00 11.1 4 Sudeste 6 Este 0 -- -- 54
2019-03-30 09:00:00 7.7 4 Sur 8 Sudeste 0 -- -- 60
2019-03-30 08:00:00 5.1 7 Sudeste 9 Sudeste 0 -- -- 62
2019-03-30 07:00:00 6 5 Sudeste 9 Sudeste 0 -- -- 57
2019-03-30 06:00:00 6.9 3 Oeste 14 Sudoeste 0 -- -- 53
2019-03-30 05:00:00 7.1 14 Oeste 18 Oeste 0 -- -- 54
2019-03-30 04:00:00 6.9 15 Sudoeste 20 Sudoeste 0 -- -- 54
2019-03-30 03:00:00 7.1 16 Sudoeste 18 Sudoeste 0 -- -- 56
2019-03-30 02:00:00 6.7 14 Sudoeste 19 Sudoeste 0 -- -- 57
2019-03-30 01:00:00 8.7 18 Sudoeste 22 Sudoeste 0 -- -- 52
2019-03-30 00:00:00 8.4 14 Sudoeste 19 Sur 0 -- -- 52
2019-03-29 23:00:00 12.3 4 Sudoeste 6 Sudoeste 0 -- -- 37
2019-03-29 22:00:00 12.5 5 Sur 6 Sur 0 -- -- 37
2019-03-29 21:00:00 13.1 5 Oeste 10 Oeste 0 -- -- 36
2019-03-29 20:00:00 13.3 8 Oeste 18 Oeste 0 -- -- 36
2019-03-29 19:00:00 16 13 Oeste 23 Sudoeste 0 -- -- 34
2019-03-29 18:00:00 17.5 12 Oeste 24 Oeste 0 -- -- 32
2019-03-29 17:00:00 17.8 11 Oeste 27 Oeste 0 -- -- 35
2019-03-29 16:00:00 17.6 13 Oeste 26 Sudoeste 0 -- -- 33
2019-03-29 15:00:00 17.3 15 Oeste 28 Oeste 0 -- -- 32
2019-03-29 14:00:00 16.4 14 Oeste 26 Oeste 0 -- -- 37
2019-03-29 13:00:00 15.1 13 Oeste 22 Oeste 0 -- -- 44
2019-03-29 12:00:00 13.2 4 Este 17 Este 0 -- -- 49
2019-03-29 11:00:00 10.9 6 Este 16 Nordeste 0 -- -- 55
2019-03-29 10:00:00 8.6 10 Este 20 Este 0 -- -- 60
2019-03-29 09:00:00 6.5 9 Este 21 Nordeste 0 -- -- 65
2019-03-29 08:00:00 4.5 11 Nordeste 19 Nordeste 0 -- -- 69
2019-03-29 07:00:00 3.9 14 Nordeste 22 Nordeste 0 -- -- 69
2019-03-29 06:00:00 4.4 14 Nordeste 25 Nordeste 0 -- -- 67
2019-03-29 05:00:00 4.6 16 Nordeste 28 Nordeste 0 -- -- 69
2019-03-29 04:00:00 5.2 21 Nordeste 29 Nordeste 0 -- -- 69
2019-03-29 03:00:00 5.7 16 Nordeste 28 Nordeste 0 -- -- 69
2019-03-29 02:00:00 6.5 20 Nordeste 32 Nordeste 0 -- -- 67
2019-03-29 01:00:00 7.7 20 Nordeste 27 Nordeste 0 -- -- 64
2019-03-29 00:00:00 8.6 17 Nordeste 27 Este 0 -- -- 61
2019-03-28 23:00:00 9.6 18 Nordeste 28 Nordeste 0 -- -- 54
2019-03-28 22:00:00 10.9 17 Nordeste 28 Nordeste 0 -- -- 48
2019-03-28 21:00:00 11.3 13 Nordeste 15 Nordeste 0 -- -- 48
2019-03-28 20:00:00 12.3 9 Nordeste 19 Este 0 -- -- 44
2019-03-28 19:00:00 15 15 Nordeste 28 Nordeste 0 -- -- 36
2019-03-28 18:00:00 15.9 19 Nordeste 30 Nordeste 0 -- -- 35
2019-03-28 17:00:00 16 19 Nordeste 32 Nordeste 0 -- -- 34
2019-03-28 16:00:00 15.8 18 Este 34 Este 0 -- -- 38
2019-03-28 15:00:00 15.3 22 Este 36 Nordeste 0 -- -- 36
2019-03-28 14:00:00 13.9 23 Nordeste 33 Nordeste 0 -- -- 40
2019-03-28 13:00:00 13 22 Este 37 Este 0 -- -- 45
2019-03-28 12:00:00 11.5 27 Este 40 Nordeste 0 -- -- 48
2019-03-28 11:00:00 9.7 26 Nordeste 51 Este 0 -- -- 58
2019-03-28 10:00:00 7.8 30 Este 47 Nordeste 0 -- -- 60
2019-03-28 09:00:00 6 26 Nordeste 37 Nordeste 0 -- -- 64
2019-03-28 08:00:00 3.6 23 Nordeste 40 Nordeste 0 -- -- 70
2019-03-28 07:00:00 2.8 25 Nordeste 42 Nordeste 0 -- -- 68
2019-03-28 06:00:00 3.4 26 Nordeste 39 Nordeste 0 -- -- 59
2019-03-28 05:00:00 4 30 Nordeste 42 Nordeste 0 -- -- 53
2019-03-28 04:00:00 4.6 31 Nordeste 44 Nordeste 0 -- -- 50
2019-03-28 03:00:00 4.8 21 Nordeste 33 Nordeste 0 -- -- 51
2019-03-28 02:00:00 5.4 18 Nordeste 35 Nordeste 0 -- -- 47
2019-03-28 01:00:00 6.8 22 Este 42 Nordeste 0 -- -- 40
2019-03-28 00:00:00 8.2 34 Nordeste 47 Nordeste 0 -- -- 36
2019-03-27 23:00:00 8.9 18 Este 44 Nordeste 0 -- -- 42
2019-03-27 22:00:00 10.5 27 Nordeste 45 Nordeste 0 -- -- 40
2019-03-27 21:00:00 11.3 19 Nordeste 32 Nordeste 0 -- -- 37
2019-03-27 20:00:00 13 16 Nordeste 39 Nordeste 0 -- -- 29
2019-03-27 19:00:00 15.5 21 Nordeste 44 Este 0 -- -- 25
2019-03-27 18:00:00 17.1 28 Nordeste 46 Nordeste 0 -- -- 23
2019-03-27 17:00:00 17.5 30 Nordeste 45 Este 0 -- -- 24
2019-03-27 16:00:00 17.4 29 Este 44 Este 0 -- -- 23
2019-03-27 15:00:00 16.3 25 Este 40 Este 0 -- -- 29
2019-03-27 14:00:00 15.5 23 Nordeste 39 Este 0 -- -- 30
2019-03-27 13:00:00 13.8 21 Nordeste 33 Nordeste 0 -- -- 34
2019-03-27 12:00:00 11.7 27 Nordeste 37 Este 0 -- -- 42
2019-03-27 11:00:00 9.3 25 Nordeste 41 Nordeste 0 -- -- 50
2019-03-27 10:00:00 7.3 31 Nordeste 46 Nordeste 0 -- -- 55
2019-03-27 09:00:00 5.3 32 Nordeste 46 Nordeste 0 -- -- 64
2019-03-27 08:00:00 3.2 30 Nordeste 44 Nordeste 0 -- -- 72
2019-03-27 07:00:00 2.5 23 Nordeste 37 Nordeste 0 -- -- 73
2019-03-27 06:00:00 2.3 13 Nordeste 34 Nordeste 0 -- -- 71
2019-03-27 05:00:00 2.8 22 Nordeste 39 Nordeste 0 -- -- 65
2019-03-27 04:00:00 3.2 17 Nordeste 57 Nordeste 0 -- -- 58
2019-03-27 03:00:00 3.8 36 Nordeste 53 Nordeste 0 -- -- 53
2019-03-27 02:00:00 4.1 34 Nordeste 47 Nordeste 0 -- -- 50
2019-03-27 01:00:00 4.6 23 Nordeste 37 Nordeste 0 -- -- 44
2019-03-27 00:00:00 5.8 22 Nordeste 40 Nordeste 0 -- -- 36